Flight Track Log - Related Links

Times and Time Zones

All times are in EDT time to prevent confusion due to time zone crossing. See the UAL549 flight status page for this flight to view local times or setup timezone preferences in your user account.

Time Position Orientation Groundspeed Altitude Reporting Facility
EDT Latitude Longitude Course Direction KTS MPH feet Rate Location/Type
Fri 11:03:03 AM 41.9833 -87.8667 201° Southwest 165 190 1,800  Level Chicago TRACON
Fri 11:04:03 AM 41.9667 -87.8000 109° East 230 265 3,900 1,043 Climbing Chicago TRACON
Fri 11:06:00 AM 41.5864 -88.1982 189° South  Level Estimated
Fri 11:06:07 AM 41.8275 -87.7781 173° South 276 318 5,000  Level Chicago Center
Fri 11:07:00 AM 41.4875 -88.2705 180° South  Level Estimated
Fri 11:07:09 AM 41.7536 -87.7908 187° South 276 318 6,100  Level Chicago Center
Fri 11:08:00 AM 41.3885 -88.3426 201° Southwest  Level Estimated
Fri 11:08:11 AM 41.6681 -87.8497 207° Southwest 293 337 10,200  Level Chicago Center
Fri 11:09:13 AM 41.5933 -87.9014 207° Southwest 302 348 12,700 1,742 Climbing Chicago Center
Fri 11:10:15 AM 41.5039 -87.9633 207° Southwest 360 414 13,800 1,355 Climbing Chicago Center
Fri 11:11:17 AM 41.4089 -88.0294 208° Southwest 405 466 15,500 1,887 Climbing Chicago Center
Fri 11:12:19 AM 41.2772 -88.0742 194° South 428 493 17,700 1,887 Climbing Chicago Center
Fri 11:13:21 AM 41.1578 -88.1097 193° South 438 504 19,400 1,694 Climbing Chicago Center
Fri 11:14:23 AM 41.0344 -88.1458 192° South 454 522 21,200 1,548 Climbing Chicago Center
Fri 11:15:25 AM 40.9094 -88.1817 192° South 460 529 22,600 1,500 Climbing Chicago Center
Fri 11:16:27 AM 40.7564 -88.2258 192° South 469 540 24,300 1,452 Climbing Chicago Center
Fri 11:17:29 AM 40.6278 -88.2633 192° South 475 547 25,600 1,403 Climbing Chicago Center
Fri 11:18:31 AM 40.4986 -88.2997 192° South 476 548 27,200 1,161 Climbing Chicago Center
Fri 11:19:33 AM 40.3700 -88.3350 192° South 474 545 28,000 387 Climbing Chicago Center
Fri 11:20:35 AM 40.2508 -88.4006 203° Southwest 467 537 28,000  Level Chicago Center
Fri 11:21:37 AM 40.1150 -88.5017 210° Southwest 468 539 28,000  Level Chicago Center
Fri 11:22:39 AM 40.0022 -88.5831 209° Southwest 466 536 28,000  Level Chicago Center
Fri 11:23:41 AM 39.8903 -88.6653 209° Southwest 464 534 28,000  Level Chicago Center
Fri 11:24:27 AM 39.7983 -88.7300 208° Southwest 464 534 28,000  Level Kansas City Center
Fri 11:25:27 AM 39.6864 -88.8125 210° Southwest 462 532 28,000  Level Kansas City Center
Fri 11:26:31 AM 39.5761 -88.8928 209° Southwest 458 527 28,000  Level Kansas City Center
Fri 11:27:31 AM 39.4656 -88.9719 209° Southwest 455 524 28,000  Level Kansas City Center
Fri 11:28:36 AM 39.3564 -89.0514 209° Southwest 453 521 28,000  Level Kansas City Center
Fri 11:29:37 AM 39.2442 -89.1303 209° Southwest 454 522 28,000  Level Kansas City Center
Fri 11:30:38 AM 39.1081 -89.2267 209° Southwest 459 528 28,000  Level Kansas City Center
Fri 11:31:42 AM 38.9961 -89.3067 209° Southwest 461 531 28,000  Level Kansas City Center
Fri 11:32:43 AM 38.8831 -89.3861 209° Southwest 462 532 28,000  Level Kansas City Center
Fri 11:33:46 AM 38.7628 -89.4725 209° Southwest 461 531 28,000  Level Kansas City Center
Fri 11:34:46 AM 38.6503 -89.5519 209° Southwest 461 531 28,000  Level Kansas City Center
Fri 11:35:50 AM 38.5283 -89.6367 209° Southwest 460 529 28,000  Level Kansas City Center
Fri 11:36:51 AM 38.4119 -89.7181 209° Southwest 465 535 28,000  Level Kansas City Center
Fri 11:37:52 AM 38.3169 -89.7864 209° Southwest 462 532 28,000  Level Kansas City Center
Fri 11:38:56 AM 38.1811 -89.8800 208° Southwest 462 532 28,000  Level Kansas City Center
Fri 11:39:57 AM 38.0672 -89.9594 209° Southwest 461 531 28,000  Level Kansas City Center
Fri 11:41:00 AM 37.9453 -90.0433 208° Southwest 465 535 28,000  Level Kansas City Center
Fri 11:42:02 AM 37.8428 -90.1122 208° Southwest 461 531 28,000  Level Kansas City Center
Fri 11:43:02 AM 37.7308 -90.1883 208° Southwest 458 527 28,000  Level Kansas City Center
Fri 11:44:07 AM 37.6194 -90.2642 208° Southwest 457 526 28,000  Level Kansas City Center
Fri 11:45:07 AM 37.4861 -90.3569 209° Southwest 457 526 28,000  Level Kansas City Center
Fri 11:46:11 AM 37.3775 -90.4294 208° Southwest 452 520 28,000  Level Kansas City Center
Fri 11:47:12 AM 37.2689 -90.5019 208° Southwest 448 516 28,000  Level Kansas City Center
Fri 11:48:13 AM 37.1606 -90.5756 208° Southwest 445 512 28,000  Level Kansas City Center
Fri 11:49:15 AM 37.0522 -90.6472 208° Southwest 443 510 28,000  Level Kansas City Center
Fri 11:50:18 AM 36.9211 -90.7344 208° Southwest 444 511 28,000  Level Kansas City Center
Fri 11:50:54 AM 36.8542 -90.7847 211° Southwest 454 522 28,000  Level Memphis Center
Fri 11:51:54 AM 36.7433 -90.8567 207° Southwest 454 522 28,000  Level Memphis Center
Fri 11:52:54 AM 36.6325 -90.9283 207° Southwest 454 522 28,000  Level Memphis Center
Fri 11:53:54 AM 36.5239 -91.0000 208° Southwest 454 522 28,000  Level Memphis Center
Fri 11:54:54 AM 36.4069 -91.0608 203° Southwest 454 522 28,000  Level Memphis Center
Fri 11:55:54 AM 36.2961 -91.1167 202° Southwest 448 516 28,000  Level Memphis Center
Fri 11:56:54 AM 36.1789 -91.1694 200° South 448 516 28,000  Level Memphis Center
Fri 11:57:54 AM 36.0639 -91.2222 200° South 448 516 28,000  Level Memphis Center
Fri 11:58:54 AM 35.9447 -91.2750 200° South 448 516 28,000  Level Memphis Center
Fri 11:59:54 AM 35.8294 -91.3300 201° Southwest 448 516 28,000  Level Memphis Center
Fri 12:00:54 PM 35.7167 -91.3822 201° Southwest 447 514 28,000  Level Memphis Center
Fri 12:01:54 PM 35.6181 -91.4297 201° Southwest 438 504 28,000  Level Memphis Center
Fri 12:02:54 PM 35.4967 -91.4817 199° South 444 511 28,000  Level Memphis Center
Fri 12:03:54 PM 35.3836 -91.5336 201° Southwest 449 517 28,000  Level Memphis Center
Fri 12:04:54 PM 35.2661 -91.5906 202° Southwest 449 517 28,000  Level Memphis Center
Fri 12:05:54 PM 35.1489 -91.6419 200° South 449 517 28,000  Level Memphis Center
Fri 12:06:54 PM 35.0317 -91.6936 200° South 449 517 28,000  Level Memphis Center
Fri 12:07:54 PM 34.9142 -91.7475 201° Southwest 449 517 28,000  Level Memphis Center
Fri 12:08:54 PM 34.7883 -91.8061 201° Southwest 449 517 28,000  Level Memphis Center
Fri 12:09:54 PM 34.6708 -91.8572 200° South 449 517 28,000  Level Memphis Center
Fri 12:10:54 PM 34.5556 -91.9081 200° South 449 517 28,000  Level Memphis Center
Fri 12:11:54 PM 34.4358 -91.9614 200° South 449 517 28,000  Level Memphis Center
Fri 12:12:54 PM 34.3225 -92.0119 200° South 449 517 28,000  Level Memphis Center
Fri 12:13:54 PM 34.2028 -92.0625 199° South 449 517 28,000  Level Memphis Center
Fri 12:16:13 PM 33.9331 -92.1842 201° Southwest 444 511 28,000  Level Fort Worth Center
Fri 12:17:13 PM 33.8139 -92.2289 197° South 451 519 28,000  Level Fort Worth Center
Fri 12:18:13 PM 33.6917 -92.2561 190° South 456 525 28,000  Level Fort Worth Center
Fri 12:19:13 PM 33.5617 -92.2886 192° South 461 531 28,000  Level Fort Worth Center
Fri 12:20:13 PM 33.4397 -92.3181 191° South 461 531 28,000  Level Fort Worth Center
Fri 12:21:14 PM 33.3139 -92.3503 192° South 461 531 28,000  Level Fort Worth Center
Fri 12:22:13 PM 33.1897 -92.3797 191° South 466 536 28,000  Level Fort Worth Center
Fri 12:23:13 PM 33.0656 -92.4089 191° South 466 536 28,000  Level Fort Worth Center
Fri 12:24:13 PM 32.9397 -92.4408 192° South 466 536 28,000  Level Fort Worth Center
Fri 12:25:13 PM 32.8136 -92.4700 191° South 466 536 28,000  Level Fort Worth Center
Fri 12:26:13 PM 32.6853 -92.5017 192° South 466 536 28,000 -198 Level Fort Worth Center
Fri 12:27:14 PM 32.5611 -92.5308 191° South 466 536 27,600 -692 Descending Fort Worth Center
Fri 12:29:15 PM 32.2994 -92.5978 192° South 471 542 25,900 -522 Descending Houston Center
Fri 12:30:18 PM 32.1711 -92.6283 191° South 472 543 26,000  Climbing Houston Center
Fri 12:31:20 PM 32.0444 -92.6600 192° South 467 537 25,900 -48 Descending Houston Center
Fri 12:32:22 PM 31.9278 -92.7208 204° Southwest 466 536 25,900 48 Level Houston Center
Fri 12:33:24 PM 31.8253 -92.8153 218° Southwest 470 541 26,000  Climbing Houston Center
Fri 12:34:26 PM 31.7275 -92.9117 220° Southwest 463 533 25,900  Descending Houston Center
Fri 12:35:28 PM 31.6106 -93.0278 220° Southwest 460 529 26,000 48 Climbing Houston Center
Fri 12:36:30 PM 31.5114 -93.1231 219° Southwest 461 531 26,000 -48 Level Houston Center
Fri 12:37:32 PM 31.4119 -93.2178 219° Southwest 462 532 25,900  Descending Houston Center
Fri 12:38:35 PM 31.3047 -93.3206 219° Southwest 463 533 26,000  Climbing Houston Center
Fri 12:39:37 PM 31.2217 -93.3978 218° Southwest 426 490 25,900 -48 Descending Houston Center
Fri 12:40:39 PM 31.1228 -93.4936 220° Southwest 390 449 25,900  Level Houston Center
Fri 12:41:41 PM 31.0386 -93.5728 219° Southwest 390 449 25,900  Level Houston Center
Fri 12:42:43 PM 30.9533 -93.6542 219° Southwest 396 456 25,900  Level Houston Center
Fri 12:43:45 PM 30.8617 -93.7414 219° Southwest 422 486 25,900 -339 Level Houston Center
Fri 12:44:47 PM 30.7678 -93.8289 219° Southwest 432 497 25,200 -879 Descending Houston Center
Fri 12:45:41 PM 30.6728 -93.9203 220° Southwest 424 488 24,200 -1,548 Descending Houston Center
Fri 12:46:51 PM 30.5697 -94.0164 219° Southwest 420 483 22,000 -2,075 Descending Houston Center
Fri 12:47:54 PM 30.4814 -94.1008 219° Southwest 416 479 19,600 -2,448 Descending Houston Center
Fri 12:48:56 PM 30.3939 -94.1797 218° Southwest 407 468 16,900 -2,758 Descending Houston Center
Fri 12:49:58 PM 30.3125 -94.2561 219° Southwest 389 448 13,900 -2,371 Descending Houston Center
Fri 12:51:00 PM 30.2186 -94.3422 218° Southwest 368 423 12,000 -919 Descending Houston Center
Fri 12:52:02 PM 30.1714 -94.4278 237° Southwest 321 369 12,000 -871 Level Houston Center
Fri 12:53:04 PM 30.1308 -94.5111 241° Southwest 302 348 10,200 -2,032 Descending Houston Center
Fri 12:54:06 PM 30.0978 -94.5925 245° Southwest 286 329 7,800 -2,274 Descending Houston Center
Fri 12:55:08 PM 30.0731 -94.6781 252° West 282 325 5,500 -1,984 Descending Houston Center
Fri 12:56:10 PM 30.0475 -94.7614 251° West 280 322 3,700 -1,087 Descending Houston Center
Fri 12:57:26 PM 30.0111 -94.8814 251° West 268 308 3,000 -339 Descending Houston Center
Fri 12:58:14 PM 29.9942 -94.9397 251° West 269 310 3,000 -218 Level Houston Center
Fri 12:59:16 PM 29.9792 -95.0231 258° West 271 312 2,600 -484 Descending Houston Center
Fri 01:00:18 PM 29.9783 -95.1033 269° West 261 300 2,000 -339 Descending Houston Center
Fri 01:01:20 PM 29.9772 -95.1731 269° West 240 276 1,900 -336 Descending Houston Center
Fri 01:02:23 PM 29.9783 -95.2289 271° West 177 204 1,300 -629 Descending Houston Center
Fri 01:03:24 PM 29.9778 -95.2703 269° West 145 167 600 -488 Descending Houston Center
Fri 01:04:26 PM 29.9783 -95.3075 271° West 139 160 300 -290 Descending Houston Center

Login

Don't have an account? Register now (free) for customized features, flight alerts, and more!